Historyczne dane pomiarowe

Dodano dane terminowe – wersja testowa.

Dane z okresu 1951-2019

Wersja bazy: 1.34 [2019-03-16, lista zmian], aktualizacja planowana na 2019-04-15

Dane meteo z obszaru Polski uzyskane na podstawie danych udostępnionych przez Instytut Meteorologii i Gospodarki Wodnej – Państwowy Instytut Badawczy.

 

Wybierz Datę:    

       

TemperaturaWilgotnośćWiatrCiśnienieOpadyŚniegCzas trwania zjawisk
 Stacja t tx tn tng RH VA  wxwx mslp ppp RRR   cm mm wxwxwxwxwxwxwx
1987-08-14 13.4 16.3 9.0 4.4 75.3- 4.3 3.3---- 0.3------------
1987-08-13 13.0 19.4 7.3 3.9 74.0- 2.7 1.3---- 0.0------------
1987-08-12 12.7 18.8 7.7 4.2 77.8- 1.3 0.3---- 0.0------------
1987-08-11 13.7 18.4 12.1 8.8 73.3- 5.0 2.3---- 0.0------------
1987-08-10 15.3 20.4 13.9 11.4 82.5- 6.7 2.0---- 0.0------------
1987-08-09 18.2 24.1 12.3 7.7 53.0- 3.7 2.7---- 0.6------------
1987-08-08 15.2 20.4 8.6 4.4 64.3- 1.3 2.0---- 0.0------------
1987-08-07 10.7 14.7 6.6 2.5 79.8- 6.3 1.3---- 0.6------------
1987-08-06 11.4 16.0 9.0 6.9 75.5- 4.7 3.3---- 0.7------------
1987-08-05 12.0 15.9 9.5 7.4 83.3- 5.3 2.0---- 7.2------------
1987-08-04 15.9 19.4 14.6 10.8 83.0- 7.0 2.3---- 0.7------------
1987-08-03 16.1 20.4 12.1 10.4 71.0- 3.3 2.3---- 1.4------------
1987-08-02 15.4 19.4 12.6 11.1 72.5- 6.0 2.7---- 7.2------------
1987-08-01 15.0 20.0 10.0 7.2 80.0- 5.7 3.0---- 0.9------------
1987-07-31 15.7 22.6 12.8 13.2 83.0- 7.7 1.7---- 0.9------------
1987-07-30 19.1 23.9 12.1 8.3 66.8- 2.7 2.0---- 5.1------------
1987-07-29 14.6 19.1 10.7 9.3 72.8- 5.3 2.0---- 0.0------------
1987-07-28 13.8 15.1 12.0 11.4 85.8- 5.0 1.7---- 3.9------------
1987-07-27 12.9 16.9 9.1 11.8 69.3- 3.3 5.0---- 4.0------------
1987-07-26 12.3 21.3 10.1 10.8 93.3- 6.3 1.0---- 6.2------------
1987-07-25 19.8 24.1 15.7 12.7 72.5- 5.7 2.0---- 3.6------------
1987-07-24 20.9 26.1 16.5 19.9 78.8- 1.0 1.7---- 0.2------------
1987-07-23 20.6 26.3 12.6 10.2 76.0- 2.3 0.7---- 5.7------------
1987-07-22 19.0 24.1 15.6 14.9 75.5- 1.0 1.0---- 0.0------------
1987-07-21 19.5 24.7 13.5 11.3 82.8- 3.7 2.0---- 8.3------------
1987-07-20 20.0 23.4 17.3 16.9 72.3- 2.3 2.3---- 0.0------------
1987-07-19 22.0 26.2 19.9 16.5 73.5- 5.3 3.0---- 20.6------------
1987-07-18 25.2 28.2 21.5 18.1 61.3- 1.0 1.0---- 0.0------------
1987-07-17 24.9 30.2 19.0 16.3 55.0- 4.3 3.0---- 0.0------------
1987-07-16 21.3 27.2 15.6 12.3 73.3- 3.0 1.0---- 0.0------------
1987-07-15 18.2 23.8 9.4 11.8 73.3- 1.7 1.7---- 0.0------------
1987-07-14 17.4 20.6 11.4 8.9 66.3- 0.0 1.0---- 0.0------------
1987-07-13 18.9 23.6 15.4 12.8 79.3- 3.0 1.7---- 0.0------------
1987-07-12 21.7 27.7 18.1 12.7 52.3- 3.3 4.7---- 3.8------------
1987-07-11 17.5 23.3 9.1 6.5 63.8- 0.3 2.7---- 0.0------------
1987-07-10 15.3 19.9 9.9 6.8 72.5- 3.7 1.0---- 0.0------------
1987-07-09 16.7 25.2 14.2 14.8 84.5- 8.0 1.0---- 9.9------------
1987-07-08 22.2 28.2 15.2 10.2 50.3- 1.0 1.7---- 0.0------------
1987-07-07 19.9 25.7 11.5 7.0 59.5- 0.0 1.0---- 0.0------------
1987-07-06 16.9 22.2 8.9 5.5 68.5- 0.0 1.7---- 0.0------------
1987-07-05 15.2 19.4 12.4 9.8 78.3- 5.0 1.3---- 0.0------------
1987-07-04 19.1 23.2 14.6 11.4 72.3- 1.3 2.7---- 0.0------------
1987-07-03 18.5 22.0 15.6 15.5 74.8- 6.0 3.7---- 0.0------------
1987-07-02 18.1 26.7 15.8 16.5 91.5- 8.0 1.3---- 0.0------------
1987-07-01 24.6 29.7 19.2 15.1 68.5- 0.0 1.0---- 0.0------------
1987-06-30 23.2 29.2 15.0 11.7 74.5- 0.3 0.0---- 0.0------------
1987-06-29 21.5 25.7 13.1 11.7 75.5- 1.0 1.0---- 0.0------------
1987-06-28 19.3 24.6 11.4 9.7 71.0- 2.3 1.7---- 0.0------------
1987-06-27 16.8 21.1 15.4 12.9 89.0- 7.3 1.7---- 0.6------------
1987-06-26 17.5 23.6 10.1 6.3 60.0- 3.0 4.7---- 18.1------------
1987-06-25 14.5 18.6 12.8 12.2 81.0- 4.0 1.7---- 7.0------------
1987-06-24 16.9 20.6 13.0 9.3 67.5- 5.3 1.7---- 2.5------------
1987-06-23 15.7 21.3 12.1 12.2 71.8- 4.0 1.0---- 0.0------------
1987-06-22 13.4 17.2 12.6 11.7 95.3- 8.0 2.3---- 0.0------------
1987-06-21 15.6 21.6 8.9 5.8 80.0- 4.0 1.3---- 0.1------------
1987-06-20 14.5 20.1 9.0 5.1 64.3- 3.0 1.3---- 0.0------------
1987-06-19 13.3 17.6 8.0 5.4 62.0- 2.7 3.3---- 0.0------------
1987-06-18 10.7 14.0 8.1 4.4 78.0- 4.0 3.7---- 5.1------------
1987-06-17 11.8 15.6 8.7 6.5 76.3- 3.0 2.0---- 2.1------------
1987-06-16 13.1 22.6 9.6 10.2 84.8- 6.7 3.7---- 13.0------------
398.5 ms

 

Źródłem pochodzenia danych jest Instytut Meteorologii i Gospodarki Wodnej – Państwowy Instytut Badawczy. Dane Instytutu Meteorologii i Gospodarki Wodnej – Państwowego Instytutu Badawczego zostały przetworzone.

Dane źródłowe można odnaleźć na stronie https://dane.imgw.pl